Time;durP1;ratioP1;P1;durP2;ratioP2;P2;SDS_P1;SDS_P2;PMS_P1;PMS_P2;Temp;Humidity;BMP_temperature;BMP_pressure;BME280_temperature;BME280_humidity;BME280_pressure;Samples;Min_cycle;Max_cycle;Signal;HPM_P1;HPM_P2
2022/08/27 00:01:15;;;;;;;12.40;9.17;;;22.10;99.90;;;;;;4991454;28;20205;-69
2022/08/27 00:03:43;;;;;;;9.67;8.10;;;22.10;99.90;;;;;;4991176;28;20428;-67
2022/08/27 00:06:12;;;;;;;11.50;9.07;;;22.20;99.90;;;;;;4991473;28;20798;-69
2022/08/27 00:08:39;;;;;;;11.30;7.33;;;22.10;99.90;;;;;;4992291;28;20511;-70
2022/08/27 00:11:04;;;;;;;9.37;8.47;;;22.10;99.90;;;;;;4995473;28;20407;-71
2022/08/27 00:13:30;;;;;;;12.67;8.37;;;22.00;1.00;;;;;;4995691;28;20527;-69
2022/08/27 00:15:56;;;;;;;9.10;7.77;;;22.00;99.90;;;;;;4996407;28;20196;-69
2022/08/27 00:18:21;;;;;;;13.57;8.13;;;22.00;99.90;;;;;;4996429;28;20263;-70
2022/08/27 00:20:47;;;;;;;10.23;8.60;;;22.00;99.90;;;;;;4996295;28;20284;-69
2022/08/27 00:23:13;;;;;;;8.20;7.50;;;22.00;99.90;;;;;;4995565;28;20192;-68
2022/08/27 00:25:39;;;;;;;9.13;7.20;;;22.00;99.90;;;;;;4995427;28;20214;-68
2022/08/27 00:28:05;;;;;;;8.50;7.60;;;22.00;99.90;;;;;;4995689;28;20173;-68
2022/08/27 00:30:30;;;;;;;13.40;9.30;;;22.00;99.90;;;;;;4994985;28;20881;-68
2022/08/27 00:32:56;;;;;;;10.63;7.70;;;22.10;99.90;;;;;;4995141;28;20169;-67
2022/08/27 00:35:22;;;;;;;11.23;8.47;;;22.10;99.90;;;;;;4995071;28;20685;-68
2022/08/27 00:37:49;;;;;;;12.63;7.80;;;22.10;99.90;;;;;;4995160;28;20169;-68
2022/08/27 00:40:18;;;;;;;21.43;10.20;;;22.10;99.90;;;;;;4994871;28;20514;-68
2022/08/27 00:42:44;;;;;;;15.60;8.00;;;22.10;99.90;;;;;;4995081;28;20411;-68
2022/08/27 00:45:12;;;;;;;10.03;7.03;;;22.10;99.90;;;;;;4995134;28;20486;-69
2022/08/27 00:47:44;;;;;;;7.60;6.90;;;22.10;99.90;;;;;;4994892;28;20472;-68
2022/08/27 00:50:13;;;;;;;10.47;7.67;;;22.10;99.90;;;;;;4995008;28;20400;-67
2022/08/27 00:52:54;;;;;;;8.40;7.30;;;22.00;90.50;;;;;;4995353;28;20396;-68
2022/08/27 00:55:26;;;;;;;9.20;8.20;;;22.00;91.50;;;;;;4994907;28;20776;-68
2022/08/27 00:58:01;;;;;;;9.37;7.53;;;21.90;99.90;;;;;;4993310;28;20465;-67
2022/08/27 01:00:27;;;;;;;8.20;7.40;;;21.90;99.90;;;;;;4995176;28;20917;-68
2022/08/27 01:02:53;;;;;;;8.50;6.80;;;21.80;99.90;;;;;;4995767;28;20419;-69
2022/08/27 01:05:24;;;;;;;6.97;6.37;;;21.80;99.90;;;;;;4994983;28;20161;-66
2022/08/27 01:07:52;;;;;;;7.80;6.73;;;21.80;99.90;;;;;;4997035;28;20486;-66
2022/08/27 01:10:24;;;;;;;8.50;7.43;;;21.70;99.90;;;;;;4994635;28;20412;-67
2022/08/27 01:12:53;;;;;;;9.90;7.83;;;21.40;1.00;;;;;;4995972;28;20925;-68
2022/08/27 01:15:20;;;;;;;16.73;7.70;;;21.10;99.90;;;;;;4995990;28;20495;-67
2022/08/27 01:17:47;;;;;;;8.13;7.40;;;21.20;1.00;;;;;;4994056;28;20436;-66
2022/08/27 01:20:19;;;;;;;8.10;7.30;;;21.20;99.90;;;;;;4992954;28;20459;-67
2022/08/27 01:23:14;;;;;;;10.73;8.13;;;21.30;99.90;;;;;;4994144;28;20401;-67
2022/08/27 01:25:42;;;;;;;10.30;7.93;;;21.30;99.90;;;;;;4993428;28;20439;-67
2022/08/27 01:28:09;;;;;;;8.97;8.00;;;21.40;99.90;;;;;;4993898;28;20409;-67
2022/08/27 01:30:36;;;;;;;9.10;8.23;;;21.40;99.90;;;;;;4994200;28;20420;-68
2022/08/27 01:33:13;;;;;;;11.00;7.03;;;21.40;92.50;;;;;;4993994;28;20436;-68
2022/08/27 01:35:44;;;;;;;8.07;7.27;;;21.60;1.00;;;;;;4994089;28;20885;-68
2022/08/27 01:38:10;;;;;;;14.73;7.93;;;21.60;1.00;;;;;;4992436;28;20415;-69
2022/08/27 01:40:37;;;;;;;8.67;7.83;;;21.60;1.00;;;;;;4993956;28;20455;-68
2022/08/27 01:43:04;;;;;;;9.60;8.40;;;21.50;1.00;;;;;;4993958;28;20492;-67
2022/08/27 01:45:34;;;;;;;10.43;8.70;;;21.50;1.00;;;;;;4993817;28;20885;-68
2022/08/27 01:48:01;;;;;;;8.83;7.47;;;21.40;1.00;;;;;;4993775;28;20440;-68
2022/08/27 01:50:31;;;;;;;11.40;8.33;;;21.50;1.00;;;;;;4993662;28;20413;-67
2022/08/27 01:53:01;;;;;;;8.90;8.00;;;21.50;1.00;;;;;;4993784;28;20408;-68
2022/08/27 01:55:27;;;;;;;15.47;7.93;;;21.40;71.20;;;;;;4994810;28;20748;-69
2022/08/27 01:57:54;;;;;;;9.10;8.20;;;21.30;99.90;;;;;;4994012;28;20440;-69
2022/08/27 02:00:33;;;;;;;10.10;7.60;;;21.30;99.90;;;;;;4994049;28;20920;-68
2022/08/27 02:02:59;;;;;;;12.17;9.00;;;21.20;1.00;;;;;;4994144;28;20408;-70
2022/08/27 02:05:26;;;;;;;11.30;8.70;;;21.20;1.00;;;;;;4993971;28;20787;-68
2022/08/27 02:07:53;;;;;;;11.80;8.03;;;21.20;1.00;;;;;;4993771;28;20467;-68
2022/08/27 02:10:23;;;;;;;10.50;8.13;;;21.30;99.90;;;;;;4993744;28;20435;-70
2022/08/27 02:12:49;;;;;;;9.17;8.30;;;21.40;99.90;;;;;;4993991;28;20407;-69
2022/08/27 02:15:15;;;;;;;8.57;7.77;;;21.40;99.90;;;;;;4993882;28;20412;-69
2022/08/27 02:17:41;;;;;;;13.37;8.70;;;21.50;97.60;;;;;;4993525;28;20165;-70
2022/08/27 02:20:09;;;;;;;11.53;8.47;;;21.50;1.00;;;;;;4993300;28;20412;-69
2022/08/27 02:22:36;;;;;;;8.10;7.07;;;21.50;1.00;;;;;;4993960;28;20224;-70
2022/08/27 02:25:05;;;;;;;11.30;7.30;;;21.40;75.70;;;;;;4993547;28;20432;-70
2022/08/27 02:27:31;;;;;;;9.53;7.83;;;21.30;99.90;;;;;;4993539;28;20404;-68
2022/08/27 02:29:57;;;;;;;8.93;7.00;;;21.30;99.90;;;;;;4993695;28;20546;-67
2022/08/27 02:32:22;;;;;;;7.97;7.27;;;21.30;10.90;;;;;;4993604;28;20980;-67
2022/08/27 02:34:48;;;;;;;7.60;6.90;;;21.40;1.00;;;;;;4993243;28;20280;-67
2022/08/27 02:37:14;;;;;;;14.43;8.80;;;21.50;1.00;;;;;;4993947;28;20251;-67
2022/08/27 02:39:40;;;;;;;12.90;8.00;;;21.50;1.00;;;;;;4992864;28;20173;-68
2022/08/27 02:42:07;;;;;;;7.60;6.90;;;21.50;1.00;;;;;;4992710;28;20201;-67
2022/08/27 02:44:34;;;;;;;13.93;7.40;;;21.50;1.00;;;;;;4992850;28;20419;-68
2022/08/27 02:47:01;;;;;;;10.63;7.97;;;21.50;1.00;;;;;;4992613;28;20495;-68
2022/08/27 02:49:28;;;;;;;18.00;8.07;;;21.50;1.00;;;;;;4994902;28;20412;-67
2022/08/27 02:51:56;;;;;;;11.30;7.60;;;21.40;1.00;;;;;;4992591;28;20470;-69
2022/08/27 02:54:23;;;;;;;8.80;7.10;;;21.40;1.00;;;;;;4992533;28;20510;-69
2022/08/27 02:56:49;;;;;;;8.27;6.80;;;21.50;1.00;;;;;;4992396;28;20837;-68
2022/08/27 02:59:16;;;;;;;8.83;6.73;;;21.50;1.00;;;;;;4992236;28;20757;-68
2022/08/27 03:01:41;;;;;;;7.27;6.57;;;21.50;1.00;;;;;;4992294;28;20574;-67
2022/08/27 03:04:07;;;;;;;8.83;7.93;;;21.50;1.00;;;;;;4992294;28;20456;-68
2022/08/27 03:06:33;;;;;;;8.97;6.90;;;21.30;93.10;;;;;;4993096;28;20165;-68
2022/08/27 03:08:59;;;;;;;8.70;7.90;;;21.00;1.00;;;;;;4992002;28;20248;-69
2022/08/27 03:11:25;;;;;;;9.50;7.13;;;20.90;1.00;;;;;;4992379;28;20169;-68
2022/08/27 03:13:51;;;;;;;9.60;7.07;;;21.00;1.00;;;;;;4995053;28;20477;-69
2022/08/27 03:16:17;;;;;;;8.30;7.60;;;21.00;1.00;;;;;;4996361;28;20169;-70
2022/08/27 03:18:43;;;;;;;8.60;7.80;;;20.80;99.90;;;;;;4995676;28;20404;-69
2022/08/27 03:21:16;;;;;;;9.60;7.43;;;20.80;99.90;;;;;;4998092;28;20197;-68
2022/08/27 03:23:42;;;;;;;9.60;7.60;;;20.80;99.90;;;;;;4996775;28;20905;-69
2022/08/27 03:26:10;;;;;;;8.23;7.10;;;20.80;1.00;;;;;;4996002;28;20408;-70
2022/08/27 03:28:37;;;;;;;8.30;6.90;;;20.80;1.00;;;;;;4995634;28;20171;-69
2022/08/27 03:31:07;;;;;;;7.60;6.80;;;20.90;1.00;;;;;;4993706;28;20412;-69
2022/08/27 03:33:38;;;;;;;8.27;7.17;;;21.00;1.00;;;;;;4992239;28;20446;-69
2022/08/27 03:36:07;;;;;;;12.33;7.87;;;21.10;99.90;;;;;;4992251;28;20412;-69
2022/08/27 03:38:34;;;;;;;9.90;7.30;;;21.10;99.90;;;;;;4991583;28;20495;-68
2022/08/27 03:41:01;;;;;;;11.27;7.07;;;21.20;67.00;;;;;;4991845;28;20456;-68
2022/08/27 03:43:27;;;;;;;12.90;8.13;;;21.20;1.00;;;;;;4991572;28;20429;-69
2022/08/27 03:45:53;;;;;;;13.93;7.63;;;21.30;1.00;;;;;;4992216;28;20408;-69
2022/08/27 03:48:20;;;;;;;9.70;7.87;;;21.20;1.00;;;;;;4992066;28;20491;-69
2022/08/27 03:50:48;;;;;;;12.60;8.27;;;21.20;1.00;;;;;;4991784;28;20459;-67
2022/08/27 03:53:16;;;;;;;9.90;7.60;;;21.30;1.00;;;;;;4992004;28;20475;-69
2022/08/27 03:55:41;;;;;;;9.17;7.90;;;21.30;1.00;;;;;;4991673;28;20421;-68
2022/08/27 03:58:09;;;;;;;35.97;11.93;;;21.20;1.00;;;;;;4991587;28;20408;-69
2022/08/27 04:00:36;;;;;;;24.83;8.20;;;21.30;1.00;;;;;;4991956;28;20201;-69
2022/08/27 04:03:04;;;;;;;8.73;6.87;;;21.20;1.00;;;;;;4991822;28;20419;-69
2022/08/27 04:05:29;;;;;;;12.73;8.40;;;21.10;99.90;;;;;;4992282;28;20454;-69
2022/08/27 04:07:55;;;;;;;113.97;15.37;;;21.00;1.00;;;;;;4992549;28;20973;-69
2022/08/27 04:10:21;;;;;;;13.47;8.50;;;21.00;1.00;;;;;;4999208;28;20525;-69
2022/08/27 04:12:47;;;;;;;15.97;8.50;;;21.00;1.00;;;;;;4998404;28;20177;-70
2022/08/27 04:15:13;;;;;;;22.73;11.10;;;21.00;99.90;;;;;;5001557;28;20252;-69
2022/08/27 04:17:39;;;;;;;18.80;8.27;;;21.10;99.90;;;;;;4999869;28;20165;-70
2022/08/27 04:20:07;;;;;;;11.60;7.80;;;21.20;1.00;;;;;;5000788;28;20157;-70
2022/08/27 04:22:33;;;;;;;21.20;9.53;;;21.20;1.00;;;;;;4999830;28;20487;-69
2022/08/27 04:24:59;;;;;;;22.40;10.00;;;21.20;1.00;;;;;;4995002;28;20438;-69
2022/08/27 04:27:25;;;;;;;10.33;8.63;;;21.30;1.00;;;;;;4991518;28;20443;-69
2022/08/27 04:29:59;;;;;;;18.50;9.40;;;21.20;1.00;;;;;;4991179;28;20404;-70
2022/08/27 04:32:26;;;;;;;11.00;8.50;;;21.20;1.00;;;;;;4991669;28;20416;-70
2022/08/27 04:34:57;;;;;;;18.47;8.97;;;21.20;1.00;;;;;;4991394;28;20589;-68
2022/08/27 04:37:23;;;;;;;19.43;8.67;;;21.20;1.00;;;;;;4991325;28;20412;-69
2022/08/27 04:39:50;;;;;;;12.53;8.70;;;21.30;1.00;;;;;;4991303;28;20408;-70
2022/08/27 04:42:17;;;;;;;14.93;8.80;;;21.20;1.00;;;;;;4991197;28;20450;-70
2022/08/27 04:44:43;;;;;;;29.67;11.20;;;21.20;1.00;;;;;;4990057;28;20436;-70
2022/08/27 04:47:09;;;;;;;31.40;11.63;;;21.30;1.00;;;;;;4991670;28;20841;-73
2022/08/27 04:49:35;;;;;;;28.33;11.10;;;21.30;1.00;;;;;;4991731;28;20439;-71
2022/08/27 04:52:02;;;;;;;17.03;9.40;;;21.40;1.00;;;;;;4991055;28;20173;-70
2022/08/27 04:54:28;;;;;;;14.10;8.97;;;21.40;1.00;;;;;;4991680;28;20439;-69
2022/08/27 04:56:54;;;;;;;13.73;9.57;;;21.40;1.00;;;;;;4994547;28;20408;-68
2022/08/27 04:59:20;;;;;;;15.10;9.20;;;21.30;1.00;;;;;;4993082;28;20614;-67
2022/08/27 05:01:47;;;;;;;13.70;9.23;;;21.30;1.00;;;;;;4994406;28;20200;-69
2022/08/27 05:04:15;;;;;;;20.53;11.20;;;21.20;49.80;;;;;;4994416;28;20209;-70
2022/08/27 05:06:44;;;;;;;12.40;7.77;;;21.30;1.00;;;;;;4994470;28;20450;-68
2022/08/27 05:09:10;;;;;;;15.33;9.50;;;21.20;14.50;;;;;;4994217;28;20877;-69
2022/08/27 05:11:36;;;;;;;23.63;10.63;;;21.00;1.00;;;;;;4994482;28;20411;-70
2022/08/27 05:14:07;;;;;;;46.20;12.37;;;21.00;1.00;;;;;;4994299;28;20783;-70
2022/08/27 05:16:35;;;;;;;21.10;11.60;;;21.20;99.90;;;;;;4994484;28;20658;-69
2022/08/27 05:19:02;;;;;;;20.03;9.80;;;21.30;99.90;;;;;;4993950;28;20412;-69
2022/08/27 05:21:31;;;;;;;11.70;9.03;;;21.30;1.00;;;;;;4994460;28;20447;-70
2022/08/27 05:23:58;;;;;;;13.50;9.80;;;21.30;1.00;;;;;;4994051;28;20428;-71
2022/08/27 05:26:25;;;;;;;23.83;11.77;;;21.40;1.00;;;;;;4994491;28;20400;-70
2022/08/27 05:28:51;;;;;;;25.03;10.53;;;21.50;1.00;;;;;;4993841;28;20715;-71
2022/08/27 05:31:19;;;;;;;17.60;11.60;;;21.50;1.00;;;;;;4994283;28;20435;-69
2022/08/27 05:33:46;;;;;;;14.50;11.70;;;21.60;1.00;;;;;;4994274;28;20428;-70
2022/08/27 05:36:21;;;;;;;13.10;11.70;;;21.70;1.00;;;;;;4994260;28;20416;-70
2022/08/27 05:38:49;;;;;;;60.37;15.40;;;21.80;1.00;;;;;;4992526;28;20416;-70
2022/08/27 05:41:19;;;;;;;47.80;15.87;;;21.90;1.00;;;;;;4993781;28;20456;-70
2022/08/27 05:43:46;;;;;;;101.80;19.20;;;21.80;99.90;;;;;;4993994;28;20468;-71
2022/08/27 05:46:14;;;;;;;62.83;17.20;;;21.80;1.00;;;;;;4994303;28;20935;-71
2022/08/27 05:48:41;;;;;;;35.10;13.27;;;21.80;1.00;;;;;;4993606;28;20404;-67
2022/08/27 05:51:08;;;;;;;17.17;12.47;;;21.70;1.00;;;;;;4994143;28;20412;-70
2022/08/27 05:53:34;;;;;;;23.10;14.43;;;21.60;1.00;;;;;;4994040;28;20448;-68
2022/08/27 05:56:00;;;;;;;28.93;13.43;;;21.60;1.00;;;;;;4993471;28;20440;-69
2022/08/27 06:01:11;;;;;;;24.20;14.50;;;21.60;1.00;;;;;;4993660;28;20212;-69
2022/08/27 06:03:37;;;;;;;47.13;16.57;;;21.60;1.00;;;;;;4993822;28;20968;-69
2022/08/27 06:06:09;;;;;;;43.40;17.40;;;21.70;1.00;;;;;;4993200;28;20161;-69
2022/08/27 06:08:36;;;;;;;31.43;14.40;;;21.60;1.00;;;;;;4993374;28;20423;-70
2022/08/27 06:11:04;;;;;;;23.63;16.30;;;21.60;1.00;;;;;;4993602;28;20408;-70
2022/08/27 06:13:31;;;;;;;33.47;19.03;;;21.60;12.70;;;;;;4993347;28;20431;-67
2022/08/27 06:16:01;;;;;;;42.27;19.67;;;21.60;99.90;;;;;;4993242;28;20416;-68
2022/08/27 06:18:27;;;;;;;44.30;20.03;;;21.60;99.90;;;;;;4993549;28;20404;-70
2022/08/27 06:20:53;;;;;;;51.33;21.13;;;21.60;99.90;;;;;;4993108;28;20455;-70
2022/08/27 06:23:19;;;;;;;26.67;18.47;;;21.70;99.90;;;;;;5004179;28;20193;-70
2022/08/27 06:25:45;;;;;;;33.83;19.20;;;21.60;99.90;;;;;;4997469;28;20249;-70
2022/08/27 06:28:12;;;;;;;24.70;21.87;;;21.70;99.90;;;;;;4992838;28;20173;-71
2022/08/27 06:30:38;;;;;;;27.27;21.03;;;21.60;99.90;;;;;;4993034;28;20783;-70
2022/08/27 06:33:03;;;;;;;36.13;21.97;;;21.30;1.00;;;;;;4992895;28;20494;-69
2022/08/27 06:35:29;;;;;;;37.13;20.37;;;21.30;99.90;;;;;;4993106;28;20173;-69
2022/08/27 06:37:55;;;;;;;35.03;22.13;;;21.40;99.90;;;;;;4993008;28;20269;-69
2022/08/27 06:40:21;;;;;;;29.80;22.50;;;21.50;1.00;;;;;;4994207;28;20169;-70
2022/08/27 06:42:47;;;;;;;50.83;26.10;;;21.60;1.00;;;;;;4993802;28;20173;-67
2022/08/27 06:45:13;;;;;;;39.37;23.63;;;21.70;1.00;;;;;;4993281;28;20411;-68
2022/08/27 06:47:39;;;;;;;59.87;27.63;;;21.70;1.00;;;;;;4993376;28;20181;-68
2022/08/27 06:50:05;;;;;;;35.57;25.47;;;21.80;1.00;;;;;;4993090;28;20400;-68
2022/08/27 06:52:31;;;;;;;45.10;27.20;;;21.90;1.00;;;;;;4993618;28;20176;-69
2022/08/27 06:54:56;;;;;;;36.00;28.70;;;21.90;1.00;;;;;;4992295;28;20200;-69
2022/08/27 06:57:23;;;;;;;28.80;25.10;;;21.90;99.90;;;;;;4992395;28;20230;-68
2022/08/27 06:59:49;;;;;;;51.60;27.20;;;21.80;1.00;;;;;;4992296;28;20165;-69
2022/08/27 07:02:14;;;;;;;51.03;27.90;;;21.90;1.00;;;;;;4992343;28;20456;-69
2022/08/27 07:04:40;;;;;;;37.90;25.83;;;22.00;99.90;;;;;;4992230;28;20188;-69
2022/08/27 07:07:06;;;;;;;29.20;24.10;;;22.00;99.90;;;;;;4991988;28;20263;-69
2022/08/27 07:09:33;;;;;;;56.00;29.30;;;22.00;99.90;;;;;;4992049;28;20223;-69
2022/08/27 07:12:00;;;;;;;43.63;27.80;;;22.00;99.90;;;;;;4992286;28;20411;-69
2022/08/27 07:14:26;;;;;;;41.80;28.77;;;22.00;1.00;;;;;;4991961;28;20971;-68
2022/08/27 07:16:51;;;;;;;52.33;29.73;;;22.00;1.00;;;;;;4992124;28;20515;-69
2022/08/27 07:19:17;;;;;;;64.13;29.67;;;22.00;1.00;;;;;;4991072;28;20487;-68
2022/08/27 07:21:43;;;;;;;33.40;27.27;;;22.10;1.00;;;;;;4990619;28;20235;-68
2022/08/27 07:24:11;;;;;;;33.50;25.90;;;22.00;1.00;;;;;;4991937;28;20717;-68
2022/08/27 07:26:40;;;;;;;37.30;27.50;;;21.90;1.00;;;;;;4991859;28;20525;-69
2022/08/27 07:29:08;;;;;;;33.20;25.90;;;21.80;99.90;;;;;;4991664;28;20771;-68
2022/08/27 07:31:34;;;;;;;32.00;27.27;;;21.90;85.10;;;;;;4991764;28;20408;-67
2022/08/27 07:34:04;;;;;;;40.00;28.33;;;22.00;1.00;;;;;;4991673;28;20441;-68
2022/08/27 07:36:31;;;;;;;37.00;27.60;;;22.10;1.00;;;;;;4990450;28;20507;-68
2022/08/27 07:38:57;;;;;;;51.20;28.97;;;22.00;1.00;;;;;;4991419;28;20440;-68
2022/08/27 07:41:24;;;;;;;62.17;30.63;;;21.90;17.40;;;;;;4992066;28;20830;-70
2022/08/27 07:46:34;;;;;;;33.63;27.70;;;21.80;99.90;;;;;;4992689;28;20923;-70
2022/08/27 07:49:00;;;;;;;35.00;26.00;;;21.70;1.00;;;;;;4991606;28;20412;-68
2022/08/27 07:51:28;;;;;;;51.33;29.53;;;21.70;1.00;;;;;;4991678;28;20177;-67
2022/08/27 07:53:54;;;;;;;33.90;27.23;;;21.80;1.00;;;;;;5019691;23;20487;-67
2022/08/27 07:56:21;;;;;;;35.03;28.13;;;21.70;1.00;;;;;;5011238;28;20409;-67
2022/08/27 07:58:46;;;;;;;32.50;28.20;;;21.60;1.00;;;;;;5011168;28;20404;-67
2022/08/27 08:01:12;;;;;;;36.13;27.03;;;21.10;99.90;;;;;;5011191;28;20455;-67
2022/08/27 08:03:39;;;;;;;37.53;28.80;;;21.30;1.00;;;;;;5011157;28;20191;-66
2022/08/27 08:06:12;;;;;;;33.97;29.40;;;21.40;99.90;;;;;;5010970;28;20571;-67
2022/08/27 08:08:42;;;;;;;33.00;27.90;;;21.40;57.70;;;;;;5011018;28;20474;-66
2022/08/27 08:11:10;;;;;;;36.00;29.43;;;21.50;81.30;;;;;;5011220;28;20411;-66
2022/08/27 08:13:37;;;;;;;32.70;29.10;;;21.30;1.00;;;;;;5011375;28;20451;-66
2022/08/27 08:16:03;;;;;;;33.20;27.53;;;21.30;1.00;;;;;;5012393;28;20415;-66
2022/08/27 08:18:28;;;;;;;38.57;28.67;;;21.40;1.00;;;;;;5011073;28;20949;-67
2022/08/27 08:21:08;;;;;;;34.60;28.27;;;21.40;1.00;;;;;;5009943;28;20196;-67
2022/08/27 08:23:35;;;;;;;44.97;29.87;;;21.30;1.00;;;;;;5011121;28;20522;-66
2022/08/27 08:26:01;;;;;;;35.93;31.20;;;21.30;1.00;;;;;;5011286;28;20494;-66
2022/08/27 08:28:29;;;;;;;34.07;27.40;;;21.20;1.00;;;;;;5011290;28;20399;-66
2022/08/27 08:30:55;;;;;;;32.70;28.00;;;21.30;1.00;;;;;;5014474;28;20411;-67
2022/08/27 08:33:21;;;;;;;51.40;29.83;;;21.40;1.00;;;;;;5014828;28;20458;-67
2022/08/27 08:35:48;;;;;;;30.43;27.23;;;21.30;1.00;;;;;;5014652;28;20947;-67
2022/08/27 08:38:15;;;;;;;32.70;27.50;;;21.10;1.00;;;;;;5014698;28;20403;-67
2022/08/27 08:40:49;;;;;;;38.77;26.57;;;21.00;38.00;;;;;;5014712;28;20457;-67
2022/08/27 08:43:35;;;;;;;35.63;26.27;;;21.10;1.00;;;;;;5014587;28;20410;-67
2022/08/27 08:46:16;;;;;;;29.10;25.70;;;21.30;1.00;;;;;;5014941;28;20869;-66
2022/08/27 08:48:47;;;;;;;26.60;23.43;;;21.40;1.00;;;;;;5015276;28;20407;-67
2022/08/27 08:51:24;;;;;;;27.47;22.30;;;21.40;1.00;;;;;;5012971;28;20450;-67
2022/08/27 08:54:25;;;;;;;24.53;21.90;;;21.40;1.00;;;;;;5012192;28;20451;-66
2022/08/27 08:57:05;;;;;;;27.63;22.73;;;21.40;1.00;;;;;;4993118;28;20569;-66
2022/08/27 08:59:37;;;;;;;25.10;21.93;;;21.40;99.90;;;;;;5015311;28;20718;-66
2022/08/27 09:02:10;;;;;;;29.10;21.83;;;21.60;99.90;;;;;;5012335;28;20435;-67
2022/08/27 09:04:36;;;;;;;25.30;22.33;;;21.60;43.90;;;;;;5012294;28;20430;-67
2022/08/27 09:07:11;;;;;;;24.07;21.67;;;21.70;99.90;;;;;;5012219;28;20794;-67
2022/08/27 09:09:54;;;;;;;26.23;22.73;;;21.60;99.90;;;;;;5012237;28;20163;-66
2022/08/27 09:12:24;;;;;;;24.83;22.30;;;21.60;35.20;;;;;;5012535;28;20387;-67
2022/08/27 09:15:05;;;;;;;23.93;21.43;;;21.40;99.90;;;;;;5012794;28;20423;-65
2022/08/27 09:17:32;;;;;;;31.67;23.60;;;21.40;1.00;;;;;;5011970;28;20410;-66
2022/08/27 09:19:57;;;;;;;22.67;20.30;;;21.50;1.00;;;;;;5012304;28;20415;-68
2022/08/27 09:22:48;;;;;;;23.73;21.20;;;21.60;1.00;;;;;;5011689;28;20438;-67
2022/08/27 09:25:19;;;;;;;27.40;18.70;;;21.50;99.90;;;;;;5011666;28;20215;-66
2022/08/27 09:27:46;;;;;;;26.50;18.60;;;21.30;1.00;;;;;;5011704;28;20391;-67
2022/08/27 09:30:21;;;;;;;26.40;17.13;;;21.40;1.00;;;;;;5009661;28;20415;-67
2022/08/27 09:32:59;;;;;;;15.97;14.20;;;21.40;1.00;;;;;;5011627;28;20886;-67
2022/08/27 09:35:27;;;;;;;17.67;13.23;;;21.30;99.90;;;;;;5011672;28;20426;-66
2022/08/27 09:37:54;;;;;;;17.37;13.80;;;21.20;99.90;;;;;;5011563;28;20498;-68
2022/08/27 09:40:36;;;;;;;18.73;16.10;;;21.20;1.00;;;;;;5011118;28;20403;-66
2022/08/27 09:43:17;;;;;;;26.07;17.33;;;21.20;99.90;;;;;;5011033;28;20422;-67
2022/08/27 09:45:54;;;;;;;31.50;19.60;;;21.20;99.90;;;;;;5011289;28;20468;-67
2022/08/27 09:48:33;;;;;;;25.83;19.80;;;21.30;99.90;;;;;;5010776;28;20431;-68
2022/08/27 09:51:05;;;;;;;24.30;18.57;;;21.30;99.90;;;;;;5011048;28;20506;-67
2022/08/27 09:53:43;;;;;;;23.00;20.43;;;21.30;1.00;;;;;;5009527;28;20502;-67
2022/08/27 09:56:22;;;;;;;39.83;20.50;;;21.30;99.90;;;;;;5011103;28;20422;-68
2022/08/27 09:59:04;;;;;;;26.00;22.03;;;21.30;99.90;;;;;;5010579;28;20426;-67
2022/08/27 10:01:33;;;;;;;25.60;20.63;;;21.40;99.90;;;;;;5010898;28;20477;-67
2022/08/27 10:04:27;;;;;;;28.97;22.07;;;21.30;99.90;;;;;;5010721;28;20514;-66
2022/08/27 10:06:53;;;;;;;20.57;18.33;;;21.40;99.90;;;;;;5010761;28;20411;-67
2022/08/27 10:09:34;;;;;;;21.80;17.37;;;21.20;1.00;;;;;;5010705;28;20464;-67
2022/08/27 10:12:08;;;;;;;25.50;18.53;;;21.20;1.00;;;;;;5010933;28;20924;-67
2022/08/27 10:14:42;;;;;;;22.67;18.40;;;21.30;1.00;;;;;;5010556;28;20458;-67
2022/08/27 10:17:43;;;;;;;26.20;20.53;;;21.20;1.00;;;;;;5010544;28;20422;-66
2022/08/27 10:20:42;;;;;;;28.17;20.27;;;21.30;1.00;;;;;;4975381;28;20423;-67
2022/08/27 10:23:34;;;;;;;43.77;22.20;;;21.50;1.00;;;;;;5010492;28;20400;-66
2022/08/27 10:26:26;;;;;;;27.23;22.03;;;21.60;1.00;;;;;;5011463;28;21015;-66
2022/08/27 10:29:29;;;;;;;23.50;19.27;;;21.70;1.00;;;;;;5010027;28;20406;-66
2022/08/27 10:32:02;;;;;;;23.40;17.97;;;21.70;1.00;;;;;;5010378;28;20413;-66
2022/08/27 10:34:37;;;;;;;22.83;18.93;;;21.50;1.00;;;;;;5010337;28;20419;-67
2022/08/27 10:37:09;;;;;;;22.47;17.17;;;21.40;99.90;;;;;;5009900;28;20394;-65
2022/08/27 10:39:55;;;;;;;24.73;19.00;;;21.30;95.50;;;;;;5010071;28;20397;-66
2022/08/27 10:42:34;;;;;;;24.90;19.60;;;21.20;99.90;;;;;;5010247;28;20458;-65
2022/08/27 10:45:22;;;;;;;23.13;20.70;;;21.20;99.90;;;;;;5010270;28;20426;-66
2022/08/27 10:48:09;;;;;;;27.53;22.00;;;21.30;99.90;;;;;;5009927;28;20435;-66
2022/08/27 10:50:47;;;;;;;26.20;22.50;;;21.30;99.90;;;;;;5010262;28;20437;-66
2022/08/27 10:53:55;;;;;;;24.43;21.93;;;21.30;99.90;;;;;;5009793;28;20399;-67
2022/08/27 10:56:26;;;;;;;28.53;22.17;;;21.50;99.90;;;;;;4990273;28;20434;-66
2022/08/27 10:59:27;;;;;;;25.17;22.57;;;21.50;87.20;;;;;;5010058;28;20419;-67
2022/08/27 11:02:05;;;;;;;33.93;25.60;;;21.50;85.10;;;;;;4988834;28;20473;-67
2022/08/27 11:04:36;;;;;;;25.70;23.10;;;21.50;99.90;;;;;;5009758;28;20422;-67
2022/08/27 11:07:08;;;;;;;28.00;25.10;;;21.50;99.90;;;;;;5009114;28;20756;-66
2022/08/27 11:09:43;;;;;;;31.57;24.73;;;21.30;99.90;;;;;;5009375;28;20435;-67
2022/08/27 11:12:14;;;;;;;28.70;25.60;;;21.40;99.90;;;;;;5009707;28;20736;-66
2022/08/27 11:15:18;;;;;;;32.03;25.40;;;21.40;99.90;;;;;;5009416;28;20419;-67
2022/08/27 11:18:02;;;;;;;31.40;28.20;;;21.40;99.90;;;;;;4967761;28;20448;-67
2022/08/27 11:20:43;;;;;;;30.20;26.63;;;21.40;99.90;;;;;;5006074;28;20411;-67
2022/08/27 11:23:14;;;;;;;32.60;26.57;;;21.30;99.90;;;;;;5009813;28;20955;-66
2022/08/27 11:26:06;;;;;;;26.60;23.80;;;21.20;1.00;;;;;;5009484;28;20431;-67
2022/08/27 11:28:40;;;;;;;30.30;24.80;;;21.00;1.00;;;;;;5007639;28;20938;-67
2022/08/27 11:31:09;;;;;;;29.73;24.50;;;21.00;1.00;;;;;;5010003;28;20815;-67
2022/08/27 11:33:49;;;;;;;29.53;24.60;;;21.00;1.00;;;;;;5009990;28;20462;-66
2022/08/27 11:36:30;;;;;;;26.93;23.70;;;20.90;1.00;;;;;;5012347;28;20502;-67
2022/08/27 11:39:17;;;;;;;21.03;17.80;;;20.60;1.00;;;;;;5009410;28;20411;-66
2022/08/27 11:42:34;;;;;;;15.03;12.40;;;20.70;99.90;;;;;;5009185;28;20548;-66
2022/08/27 11:45:06;;;;;;;9.50;8.50;;;20.50;1.00;;;;;;4993344;28;20440;-66
2022/08/27 11:47:32;;;;;;;10.23;8.13;;;20.00;1.00;;;;;;5009574;28;20442;-66
2022/08/27 11:50:04;;;;;;;11.80;8.00;;;20.00;1.00;;;;;;5011329;28;20818;-66
2022/08/27 11:52:33;;;;;;;31.40;9.50;;;19.90;1.00;;;;;;5011609;28;20251;-66
2022/08/27 11:55:25;;;;;;;7.57;6.13;;;19.90;8.00;;;;;;5010906;28;20951;-66
2022/08/27 11:58:05;;;;;;;6.90;5.80;;;20.00;1.00;;;;;;5011165;28;20411;-66
2022/08/27 12:00:39;;;;;;;18.53;6.83;;;19.80;1.00;;;;;;5011029;28;20906;-66
2022/08/27 12:03:20;;;;;;;10.73;6.20;;;19.90;99.90;;;;;;5011345;28;20415;-67
2022/08/27 12:06:08;;;;;;;5.03;4.47;;;19.90;99.90;;;;;;5010730;28;20725;-65
2022/08/27 12:08:35;;;;;;;6.40;4.77;;;20.00;99.90;;;;;;5010996;28;20427;-66
2022/08/27 12:11:16;;;;;;;12.07;5.80;;;20.30;52.80;;;;;;5011123;28;20410;-66
2022/08/27 12:13:50;;;;;;;18.00;6.03;;;20.80;99.90;;;;;;5012337;28;20421;-67
2022/08/27 12:16:34;;;;;;;16.93;6.20;;;21.20;99.90;;;;;;5010862;28;20406;-67
2022/08/27 12:19:18;;;;;;;13.70;5.33;;;21.80;1.00;;;;;;5010993;28;20630;-66
2022/08/27 12:22:10;;;;;;;16.37;6.10;;;22.10;99.90;;;;;;5010801;28;20454;-66
2022/08/27 12:24:36;;;;;;;16.37;5.07;;;22.50;1.00;;;;;;5009751;28;20431;-65
2022/08/27 12:27:19;;;;;;;37.00;7.50;;;22.30;1.00;;;;;;5010609;28;20411;-65
2022/08/27 12:30:08;;;;;;;14.70;7.07;;;22.40;1.00;;;;;;5010846;28;20164;-66
2022/08/27 12:32:45;;;;;;;28.43;5.77;;;22.60;1.00;;;;;;5010675;28;20413;-66
2022/08/27 12:35:36;;;;;;;19.17;5.70;;;22.70;1.00;;;;;;5011017;28;20529;-67
2022/08/27 12:38:19;;;;;;;36.77;7.87;;;22.60;1.00;;;;;;5010576;28;20761;-65
2022/08/27 12:40:53;;;;;;;6.47;5.83;;;22.80;1.00;;;;;;5010382;28;20451;-65
2022/08/27 12:43:23;;;;;;;23.10;7.60;;;22.50;1.00;;;;;;5010668;28;20439;-65
2022/08/27 12:45:57;;;;;;;19.07;7.20;;;22.10;99.90;;;;;;5010795;28;20802;-66
2022/08/27 12:48:29;;;;;;;15.43;5.97;;;21.80;1.00;;;;;;5010363;28;20408;-66
2022/08/27 12:51:00;;;;;;;9.93;6.10;;;21.80;1.00;;;;;;5010791;28;20403;-66
2022/08/27 12:53:38;;;;;;;12.30;5.90;;;21.80;99.90;;;;;;5010596;28;20403;-66
2022/08/27 12:56:10;;;;;;;9.80;5.37;;;21.90;99.90;;;;;;5010550;28;20415;-66
2022/08/27 12:58:44;;;;;;;18.27;7.90;;;21.90;30.00;;;;;;5010225;28;20418;-65
2022/08/27 13:01:25;;;;;;;9.83;6.13;;;21.90;1.00;;;;;;5010518;28;20446;-67
2022/08/27 13:03:53;;;;;;;25.77;8.60;;;21.90;99.90;;;;;;5010440;28;21007;-67